createdAt,value
2019-06-27T00:01:26.271Z,22.62
2019-06-27T00:04:49.539Z,22.61
2019-06-27T00:08:12.729Z,22.49
2019-06-27T00:11:35.966Z,22.34
2019-06-27T00:14:59.163Z,22.10
2019-06-27T00:18:22.438Z,22.03
2019-06-27T00:21:45.500Z,22.02
2019-06-27T00:25:08.784Z,21.89
2019-06-27T00:28:31.910Z,22.02
2019-06-27T00:31:55.158Z,21.85
2019-06-27T00:35:18.374Z,21.98
2019-06-27T00:38:41.616Z,21.54
2019-06-27T00:42:04.837Z,21.48
2019-06-27T00:45:27.977Z,21.19
2019-06-27T00:48:51.142Z,21.73
2019-06-27T00:52:14.340Z,21.48
2019-06-27T00:55:37.746Z,21.31
2019-06-27T00:59:00.948Z,21.55
2019-06-27T01:02:24.031Z,20.96
2019-06-27T01:05:47.159Z,21.18
2019-06-27T01:09:10.205Z,21.10
2019-06-27T01:12:33.570Z,21.03
2019-06-27T01:15:56.837Z,21.26
2019-06-27T01:19:19.974Z,21.18
2019-06-27T01:22:43.056Z,21.21
2019-06-27T01:26:06.309Z,21.19
2019-06-27T01:29:29.437Z,20.96
2019-06-27T01:32:52.786Z,20.84
2019-06-27T01:36:15.965Z,20.99
2019-06-27T01:39:39.369Z,20.99
2019-06-27T01:43:02.530Z,20.92
2019-06-27T01:46:26.781Z,20.70
2019-06-27T01:49:50.172Z,20.56
2019-06-27T01:53:13.351Z,20.85
2019-06-27T01:56:36.457Z,20.92
2019-06-27T01:59:59.671Z,20.65
2019-06-27T02:03:22.781Z,20.46
2019-06-27T02:06:45.879Z,20.51
2019-06-27T02:10:09.489Z,20.39
2019-06-27T02:13:32.826Z,20.64
2019-06-27T02:16:55.966Z,20.58
2019-06-27T02:20:19.168Z,20.59
2019-06-27T02:23:42.345Z,20.16
2019-06-27T02:27:05.458Z,20.49
2019-06-27T02:30:46.566Z,20.65
2019-06-27T02:34:09.883Z,20.42
2019-06-27T02:37:33.064Z,20.36
2019-06-27T02:40:58.668Z,20.49
2019-06-27T02:44:23.212Z,20.44
2019-06-27T02:47:46.321Z,20.19
2019-06-27T02:51:10.005Z,20.07
2019-06-27T02:54:33.179Z,20.25
2019-06-27T02:57:56.317Z,19.93
2019-06-27T03:01:19.619Z,19.87
2019-06-27T03:04:42.747Z,20.11
2019-06-27T03:08:05.897Z,19.99
2019-06-27T03:11:29.035Z,19.86
2019-06-27T03:14:53.184Z,20.12
2019-06-27T03:18:17.404Z,20.02
2019-06-27T03:21:40.812Z,20.45
2019-06-27T03:25:05.157Z,20.28
2019-06-27T03:28:45.035Z,20.15
2019-06-27T03:31:53.342Z,20.27
2019-06-27T03:35:16.485Z,20.00
2019-06-27T03:38:39.750Z,20.17
2019-06-27T03:42:03.144Z,20.12
2019-06-27T03:45:26.234Z,20.03
2019-06-27T03:48:49.361Z,20.32
2019-06-27T03:52:12.522Z,20.24
2019-06-27T03:55:35.933Z,20.13
2019-06-27T03:59:11.570Z,20.27
2019-06-27T04:02:24.172Z,20.15
2019-06-27T04:05:47.271Z,20.21
2019-06-27T04:09:10.712Z,20.09
2019-06-27T04:12:33.967Z,20.02
2019-06-27T04:15:57.202Z,20.18
2019-06-27T04:19:20.357Z,20.11
2019-06-27T04:22:43.725Z,20.18
2019-06-27T04:26:06.923Z,20.12
2019-06-27T04:29:33.796Z,20.02
2019-06-27T04:32:55.065Z,20.09
2019-06-27T04:36:18.196Z,20.17
2019-06-27T04:39:41.371Z,20.17
2019-06-27T04:43:05.916Z,20.38
2019-06-27T04:46:29.896Z,20.23
2019-06-27T04:49:53.935Z,20.39
2019-06-27T04:53:17.471Z,20.32
2019-06-27T04:56:40.899Z,20.68
2019-06-27T05:00:04.662Z,20.84
2019-06-27T05:03:27.998Z,20.57
2019-06-27T05:06:51.236Z,20.58
2019-06-27T05:10:14.785Z,20.42
2019-06-27T05:13:41.168Z,20.24
2019-06-27T05:17:05.057Z,20.35
2019-06-27T05:20:28.210Z,20.37
2019-06-27T05:23:51.337Z,20.47
2019-06-27T05:27:14.554Z,20.18
2019-06-27T05:30:37.683Z,20.48
2019-06-27T05:34:00.775Z,20.70
2019-06-27T05:37:24.004Z,20.85
2019-06-27T05:40:47.130Z,20.48
2019-06-27T05:44:10.404Z,20.89
2019-06-27T05:47:33.595Z,20.77
2019-06-27T05:50:57.684Z,20.67
2019-06-27T05:54:20.931Z,20.61
2019-06-27T05:57:44.145Z,20.36
2019-06-27T06:01:07.290Z,20.47
2019-06-27T06:04:30.433Z,20.45
2019-06-27T06:07:53.639Z,20.62
2019-06-27T06:11:16.729Z,21.12
2019-06-27T06:14:40.017Z,20.88
2019-06-27T06:18:03.273Z,20.77
2019-06-27T06:21:26.949Z,20.92
2019-06-27T06:24:50.235Z,21.02
2019-06-27T06:28:13.900Z,20.65
2019-06-27T06:31:37.068Z,20.87
2019-06-27T06:35:00.248Z,20.93
2019-06-27T06:38:28.189Z,20.94
2019-06-27T06:42:05.425Z,20.80
2019-06-27T06:45:31.328Z,21.20
2019-06-27T06:48:54.679Z,21.34
2019-06-27T06:52:17.831Z,21.17
2019-06-27T06:55:42.813Z,21.46
2019-06-27T06:59:05.971Z,20.92
2019-06-27T07:02:31.496Z,20.32
2019-06-27T07:05:54.842Z,20.99
2019-06-27T07:09:17.941Z,21.30
2019-06-27T07:12:41.245Z,20.83
2019-06-27T07:16:04.568Z,21.09
2019-06-27T07:19:27.736Z,21.41
2019-06-27T07:22:51.168Z,21.00
2019-06-27T07:26:14.293Z,21.58
2019-06-27T07:29:37.581Z,21.65
2019-06-27T07:33:00.858Z,21.40
2019-06-27T07:36:24.026Z,21.54
2019-06-27T07:39:47.320Z,21.77
2019-06-27T07:43:10.545Z,21.93
2019-06-27T07:46:33.662Z,21.81
2019-06-27T07:49:58.479Z,22.33
2019-06-27T07:53:21.621Z,21.75
2019-06-27T07:56:46.289Z,21.90
2019-06-27T08:00:13.106Z,22.25
2019-06-27T08:03:36.660Z,22.37
2019-06-27T08:06:59.850Z,22.37
2019-06-27T08:10:23.010Z,22.00
2019-06-27T08:13:46.339Z,22.55
2019-06-27T08:17:09.934Z,22.48
2019-06-27T08:20:33.073Z,22.75
2019-06-27T08:23:56.555Z,22.41
2019-06-27T08:27:19.710Z,23.06
2019-06-27T08:30:42.853Z,22.85
2019-06-27T08:34:06.277Z,23.23
2019-06-27T08:37:29.392Z,23.09
2019-06-27T08:40:52.539Z,23.31
2019-06-27T08:44:15.662Z,23.08
2019-06-27T08:47:41.668Z,23.13
2019-06-27T08:51:04.776Z,23.45
2019-06-27T08:54:28.092Z,23.33
2019-06-27T08:57:51.403Z,22.97
2019-06-27T09:01:14.643Z,23.26
2019-06-27T09:04:38.295Z,23.62
2019-06-27T09:08:01.471Z,23.72
2019-06-27T09:11:24.961Z,24.22
2019-06-27T09:14:48.393Z,24.43
2019-06-27T09:18:11.627Z,24.72
2019-06-27T09:21:34.873Z,24.57
2019-06-27T09:24:58.053Z,24.63
2019-06-27T09:28:21.364Z,24.60
2019-06-27T09:31:44.624Z,24.92
2019-06-27T09:35:10.486Z,24.78
2019-06-27T09:38:33.779Z,25.11
2019-06-27T09:41:56.992Z,25.47
2019-06-27T09:45:22.201Z,25.39
2019-06-27T09:48:45.308Z,24.86
2019-06-27T09:52:08.557Z,25.49
2019-06-27T09:55:32.014Z,26.05
2019-06-27T09:58:55.107Z,26.33
2019-06-27T10:02:18.475Z,26.54
2019-06-27T10:05:42.038Z,26.82
2019-06-27T10:09:05.541Z,26.83
2019-06-27T10:12:41.697Z,27.25
2019-06-27T10:15:54.059Z,27.72
2019-06-27T10:19:17.210Z,26.84
2019-06-27T10:22:40.658Z,26.48
2019-06-27T10:26:03.875Z,27.40
2019-06-27T10:29:27.086Z,28.09
2019-06-27T10:32:59.108Z,28.27
2019-06-27T10:36:15.325Z,29.11
2019-06-27T10:39:38.664Z,28.59
2019-06-27T10:43:01.805Z,29.05
2019-06-27T10:46:25.071Z,28.56
2019-06-27T10:49:48.384Z,29.15
2019-06-27T10:53:11.569Z,29.22
2019-06-27T10:56:38.834Z,29.17
2019-06-27T11:00:01.130Z,29.42
2019-06-27T11:03:24.724Z,29.77
2019-06-27T11:06:47.912Z,29.64
2019-06-27T11:10:11.083Z,29.40
2019-06-27T11:13:34.577Z,28.98
2019-06-27T11:16:57.724Z,29.42
2019-06-27T11:20:20.954Z,30.12
2019-06-27T11:23:44.116Z,30.50
2019-06-27T11:27:07.436Z,31.39
2019-06-27T11:30:30.576Z,31.70
2019-06-27T11:33:53.985Z,31.58
2019-06-27T11:37:17.194Z,31.83
2019-06-27T11:40:40.710Z,32.55
2019-06-27T11:44:04.377Z,31.27
2019-06-27T11:47:27.793Z,33.11
2019-06-27T11:50:51.002Z,34.58
2019-06-27T11:54:14.285Z,33.86
2019-06-27T11:57:37.518Z,33.88
2019-06-27T12:01:00.633Z,33.90
2019-06-27T12:04:23.933Z,34.24
2019-06-27T12:07:47.120Z,34.42
2019-06-27T12:11:10.820Z,34.93
2019-06-27T12:14:33.988Z,33.93
2019-06-27T12:17:57.316Z,35.52
2019-06-27T12:21:20.428Z,34.56
2019-06-27T12:24:43.943Z,32.04
2019-06-27T12:28:07.085Z,33.72
2019-06-27T12:31:30.305Z,35.48
2019-06-27T12:34:53.737Z,36.09
2019-06-27T12:38:16.919Z,36.25
2019-06-27T12:41:40.334Z,35.70
2019-06-27T12:45:03.726Z,35.87
2019-06-27T12:48:30.408Z,35.05
2019-06-27T12:51:55.674Z,35.66
2019-06-27T12:55:19.253Z,36.84
2019-06-27T12:58:42.368Z,35.78
2019-06-27T13:02:05.796Z,38.12
2019-06-27T13:05:29.284Z,36.43
2019-06-27T13:08:52.517Z,37.33
2019-06-27T13:12:15.684Z,36.66
2019-06-27T13:15:39.345Z,36.23
2019-06-27T13:19:02.538Z,36.94
2019-06-27T13:22:25.961Z,37.88
2019-06-27T13:25:50.254Z,37.71
2019-06-27T13:29:13.386Z,36.93
2019-06-27T13:32:36.911Z,37.66
2019-06-27T13:36:00.290Z,38.62
2019-06-27T13:39:24.803Z,38.11
2019-06-27T13:42:48.485Z,38.31
2019-06-27T13:46:12.702Z,37.02
2019-06-27T13:49:35.983Z,36.59
2019-06-27T13:52:59.245Z,37.39
2019-06-27T13:56:22.512Z,37.76
2019-06-27T13:59:45.655Z,37.18
2019-06-27T14:03:10.287Z,38.02
2019-06-27T14:06:33.447Z,37.22
2019-06-27T14:09:57.415Z,39.15
2019-06-27T14:13:20.945Z,36.50
2019-06-27T14:16:44.367Z,37.88
2019-06-27T14:20:08.837Z,37.29
2019-06-27T14:23:32.504Z,39.01
2019-06-27T14:26:55.747Z,39.13
2019-06-27T14:30:19.046Z,40.23
2019-06-27T14:33:42.400Z,38.30
2019-06-27T14:37:05.513Z,37.97
2019-06-27T14:40:28.812Z,38.32
2019-06-27T14:43:52.041Z,39.04
2019-06-27T14:47:15.478Z,38.80
2019-06-27T14:50:38.784Z,39.84
2019-06-27T14:54:02.032Z,40.08
2019-06-27T14:57:25.696Z,41.15
2019-06-27T15:00:48.878Z,40.42
2019-06-27T15:04:12.009Z,40.04
2019-06-27T15:07:35.209Z,39.23
2019-06-27T15:10:58.339Z,38.39
2019-06-27T15:14:21.444Z,38.92
2019-06-27T15:17:44.641Z,40.41
2019-06-27T15:21:08.418Z,40.86
2019-06-27T15:24:31.545Z,40.62
2019-06-27T15:27:54.756Z,41.11
2019-06-27T15:31:17.876Z,41.58
2019-06-27T15:34:42.663Z,40.91
2019-06-27T15:38:05.898Z,40.58
2019-06-27T15:41:29.007Z,41.33
2019-06-27T15:44:52.135Z,41.95
2019-06-27T15:48:15.377Z,41.66
2019-06-27T15:51:38.553Z,42.07
2019-06-27T15:55:02.005Z,42.49
2019-06-27T15:58:26.346Z,41.83
2019-06-27T16:01:49.473Z,42.68
2019-06-27T16:05:13.873Z,43.06
2019-06-27T16:08:37.755Z,43.78
2019-06-27T16:12:00.849Z,44.21
2019-06-27T16:15:23.961Z,44.50
2019-06-27T16:18:47.090Z,44.81
2019-06-27T16:22:10.468Z,43.09
2019-06-27T16:25:33.638Z,42.40
2019-06-27T16:28:56.814Z,43.13
2019-06-27T16:32:19.942Z,41.92
2019-06-27T16:35:43.156Z,40.43
2019-06-27T16:39:06.598Z,38.95
2019-06-27T16:42:29.718Z,37.40
2019-06-27T16:45:53.003Z,36.72
2019-06-27T16:49:16.252Z,38.19
2019-06-27T16:52:39.658Z,37.92
2019-06-27T16:56:02.925Z,35.68
2019-06-27T16:59:26.135Z,36.76
2019-06-27T17:02:49.516Z,36.84
2019-06-27T17:06:12.606Z,36.76
2019-06-27T17:09:35.941Z,37.41
2019-06-27T17:12:59.043Z,36.35
2019-06-27T17:16:22.474Z,35.63
2019-06-27T17:19:45.836Z,33.73
2019-06-27T17:23:09.263Z,32.47
2019-06-27T17:26:33.619Z,32.12
2019-06-27T17:29:57.882Z,30.97
2019-06-27T17:33:23.197Z,30.98
2019-06-27T17:36:56.905Z,30.95
2019-06-27T17:40:12.187Z,30.84
2019-06-27T17:43:36.302Z,30.58
2019-06-27T17:46:59.372Z,30.03
2019-06-27T17:50:22.618Z,30.07
2019-06-27T17:53:45.825Z,29.77
2019-06-27T17:57:08.974Z,29.76
2019-06-27T18:00:32.543Z,28.96
2019-06-27T18:03:55.881Z,28.97
2019-06-27T18:07:19.019Z,28.39
2019-06-27T18:10:42.435Z,28.36
2019-06-27T18:14:05.699Z,28.18
2019-06-27T18:17:33.655Z,28.46
2019-06-27T18:20:54.033Z,28.10
2019-06-27T18:24:17.570Z,28.13
2019-06-27T18:27:40.817Z,27.62
2019-06-27T18:31:04.086Z,27.68
2019-06-27T18:34:27.292Z,27.84
2019-06-27T18:37:50.830Z,28.04
2019-06-27T18:41:14.054Z,27.73
2019-06-27T18:44:37.511Z,27.16
2019-06-27T18:48:00.733Z,27.08
2019-06-27T18:51:24.894Z,27.60
2019-06-27T18:54:48.019Z,27.24
2019-06-27T18:58:11.344Z,26.87
2019-06-27T19:01:34.858Z,26.82
2019-06-27T19:04:58.055Z,26.54
2019-06-27T19:08:21.192Z,26.86
2019-06-27T19:11:44.640Z,26.28
2019-06-27T19:15:08.331Z,25.92
2019-06-27T19:18:43.824Z,25.93
2019-06-27T19:22:26.595Z,25.76
2019-06-27T19:25:51.059Z,25.46
2019-06-27T19:29:14.231Z,25.74
2019-06-27T19:32:37.697Z,25.88
2019-06-27T19:36:03.265Z,25.70
2019-06-27T19:39:27.132Z,25.55
2019-06-27T19:42:50.802Z,25.26
2019-06-27T19:46:14.010Z,25.33
2019-06-27T19:49:37.165Z,25.27
2019-06-27T19:53:00.448Z,24.87
2019-06-27T19:56:23.667Z,25.11
2019-06-27T19:59:46.774Z,24.98
2019-06-27T20:03:10.309Z,24.82
2019-06-27T20:06:33.834Z,24.84
2019-06-27T20:09:57.003Z,24.86
2019-06-27T20:13:20.263Z,24.41
2019-06-27T20:16:44.064Z,24.67
2019-06-27T20:20:08.529Z,24.72
2019-06-27T20:23:31.700Z,24.58
2019-06-27T20:26:54.963Z,24.30
2019-06-27T20:30:18.535Z,24.28
2019-06-27T20:33:41.776Z,24.17
2019-06-27T20:37:04.928Z,23.96
2019-06-27T20:40:28.135Z,24.21
2019-06-27T20:43:51.211Z,23.68
2019-06-27T20:47:14.356Z,23.83
2019-06-27T20:50:37.654Z,23.74
2019-06-27T20:54:00.831Z,23.84
2019-06-27T20:57:24.114Z,23.62
2019-06-27T21:00:47.598Z,23.44
2019-06-27T21:04:10.863Z,23.38
2019-06-27T21:07:33.964Z,23.69
2019-06-27T21:10:57.275Z,23.09
2019-06-27T21:14:20.486Z,23.17
2019-06-27T21:17:44.820Z,23.38
2019-06-27T21:21:07.971Z,23.32
2019-06-27T21:24:31.354Z,23.47
2019-06-27T21:27:54.503Z,23.34
2019-06-27T21:31:17.742Z,23.25
2019-06-27T21:34:40.867Z,23.14
2019-06-27T21:38:04.082Z,23.15
2019-06-27T21:41:27.182Z,22.70
2019-06-27T21:44:50.302Z,22.72
2019-06-27T21:48:13.451Z,22.62
2019-06-27T21:51:36.639Z,22.68
2019-06-27T21:54:59.882Z,22.24
2019-06-27T21:58:23.062Z,22.46
2019-06-27T22:01:46.577Z,22.58
2019-06-27T22:05:10.226Z,22.45
2019-06-27T22:08:33.452Z,22.25
2019-06-27T22:11:56.777Z,21.98
2019-06-27T22:15:20.044Z,22.22
2019-06-27T22:18:43.152Z,21.83
2019-06-27T22:22:06.278Z,21.60
2019-06-27T22:25:39.624Z,21.45
2019-06-27T22:28:54.719Z,21.55
2019-06-27T22:32:18.146Z,21.46
2019-06-27T22:35:41.541Z,21.58
2019-06-27T22:43:04.493Z,21.38
2019-06-27T22:46:46.461Z,21.33
2019-06-27T22:50:23.689Z,20.97
2019-06-27T22:54:05.311Z,21.13
2019-06-27T22:57:30.484Z,20.93
2019-06-27T23:00:56.513Z,20.81
2019-06-27T23:04:19.990Z,20.81
2019-06-27T23:07:43.095Z,20.63
2019-06-27T23:11:06.281Z,20.65
2019-06-27T23:14:29.377Z,20.67
2019-06-27T23:17:52.520Z,20.28
2019-06-27T23:21:15.650Z,20.48
2019-06-27T23:24:38.743Z,20.60
2019-06-27T23:28:02.009Z,20.45
2019-06-27T23:31:25.169Z,20.58
2019-06-27T23:34:48.295Z,20.25
2019-06-27T23:38:11.498Z,20.25
2019-06-27T23:41:34.682Z,20.04
2019-06-27T23:44:58.057Z,20.10
2019-06-27T23:48:21.313Z,19.90
2019-06-27T23:51:44.443Z,19.95
2019-06-27T23:55:09.517Z,19.96
2019-06-27T23:58:33.041Z,19.74
